sensor_id;sensor_type;location;lat;lon;timestamp;P1;durP1;ratioP1;P2;durP2;ratioP2
22191;SDS011;11261;52.456;10.850;2023-12-07T00:01:14;37.08;;;16.40;;
22191;SDS011;11261;52.456;10.850;2023-12-07T00:03:43;35.63;;;16.00;;
22191;SDS011;11261;52.456;10.850;2023-12-07T00:06:11;38.78;;;16.75;;
22191;SDS011;11261;52.456;10.850;2023-12-07T00:08:40;32.70;;;15.65;;
22191;SDS011;11261;52.456;10.850;2023-12-07T00:11:09;28.88;;;13.55;;
22191;SDS011;11261;52.456;10.850;2023-12-07T00:13:37;34.35;;;16.08;;
22191;SDS011;11261;52.456;10.850;2023-12-07T00:16:06;35.88;;;15.85;;
22191;SDS011;11261;52.456;10.850;2023-12-07T00:18:36;40.58;;;14.35;;
22191;SDS011;11261;52.456;10.850;2023-12-07T00:21:05;38.97;;;15.75;;
22191;SDS011;11261;52.456;10.850;2023-12-07T00:23:36;40.50;;;17.00;;
22191;SDS011;11261;52.456;10.850;2023-12-07T00:26:04;36.58;;;14.65;;
22191;SDS011;11261;52.456;10.850;2023-12-07T00:28:33;33.72;;;14.70;;
22191;SDS011;11261;52.456;10.850;2023-12-07T00:31:02;37.75;;;16.42;;
22191;SDS011;11261;52.456;10.850;2023-12-07T00:33:31;39.28;;;16.58;;
22191;SDS011;11261;52.456;10.850;2023-12-07T00:36:01;31.05;;;14.30;;
22191;SDS011;11261;52.456;10.850;2023-12-07T00:38:30;32.67;;;15.48;;
22191;SDS011;11261;52.456;10.850;2023-12-07T00:40:59;37.25;;;15.75;;
22191;SDS011;11261;52.456;10.850;2023-12-07T00:43:27;36.05;;;14.60;;
22191;SDS011;11261;52.456;10.850;2023-12-07T00:45:56;36.50;;;15.18;;
22191;SDS011;11261;52.456;10.850;2023-12-07T00:48:25;37.22;;;16.13;;
22191;SDS011;11261;52.456;10.850;2023-12-07T00:50:54;35.10;;;14.90;;
22191;SDS011;11261;52.456;10.850;2023-12-07T00:56:48;44.63;;;15.32;;
22191;SDS011;11261;52.456;10.850;2023-12-07T00:59:17;30.40;;;13.32;;
22191;SDS011;11261;52.456;10.850;2023-12-07T01:01:46;37.15;;;13.68;;
22191;SDS011;11261;52.456;10.850;2023-12-07T01:04:14;35.03;;;14.43;;
22191;SDS011;11261;52.456;10.850;2023-12-07T01:06:43;33.05;;;15.25;;
22191;SDS011;11261;52.456;10.850;2023-12-07T01:09:12;33.08;;;14.52;;
22191;SDS011;11261;52.456;10.850;2023-12-07T01:11:40;32.97;;;15.15;;
22191;SDS011;11261;52.456;10.850;2023-12-07T01:14:10;38.45;;;15.93;;
22191;SDS011;11261;52.456;10.850;2023-12-07T01:16:39;34.70;;;15.95;;
22191;SDS011;11261;52.456;10.850;2023-12-07T01:19:07;32.28;;;14.73;;
22191;SDS011;11261;52.456;10.850;2023-12-07T01:21:36;35.35;;;16.55;;
22191;SDS011;11261;52.456;10.850;2023-12-07T01:24:06;33.10;;;14.27;;
22191;SDS011;11261;52.456;10.850;2023-12-07T01:26:41;34.97;;;14.88;;
22191;SDS011;11261;52.456;10.850;2023-12-07T01:29:11;37.38;;;13.48;;
22191;SDS011;11261;52.456;10.850;2023-12-07T01:31:40;34.45;;;14.57;;
22191;SDS011;11261;52.456;10.850;2023-12-07T01:34:09;28.08;;;13.35;;
22191;SDS011;11261;52.456;10.850;2023-12-07T01:36:38;32.55;;;13.40;;
22191;SDS011;11261;52.456;10.850;2023-12-07T01:39:06;31.55;;;14.85;;
22191;SDS011;11261;52.456;10.850;2023-12-07T01:41:38;38.55;;;16.80;;
22191;SDS011;11261;52.456;10.850;2023-12-07T01:44:06;33.40;;;14.35;;
22191;SDS011;11261;52.456;10.850;2023-12-07T01:46:36;33.60;;;15.20;;
22191;SDS011;11261;52.456;10.850;2023-12-07T01:49:05;34.28;;;16.73;;
22191;SDS011;11261;52.456;10.850;2023-12-07T01:51:33;34.35;;;15.18;;
22191;SDS011;11261;52.456;10.850;2023-12-07T01:54:02;34.47;;;15.68;;
22191;SDS011;11261;52.456;10.850;2023-12-07T01:56:31;30.67;;;15.35;;
22191;SDS011;11261;52.456;10.850;2023-12-07T01:58:59;29.80;;;15.18;;
22191;SDS011;11261;52.456;10.850;2023-12-07T02:01:28;35.22;;;15.43;;
22191;SDS011;11261;52.456;10.850;2023-12-07T02:03:58;30.42;;;13.68;;
22191;SDS011;11261;52.456;10.850;2023-12-07T02:06:26;32.65;;;14.27;;
22191;SDS011;11261;52.456;10.850;2023-12-07T02:08:55;30.58;;;14.60;;
22191;SDS011;11261;52.456;10.850;2023-12-07T02:11:23;30.70;;;14.30;;
22191;SDS011;11261;52.456;10.850;2023-12-07T02:13:52;30.20;;;14.32;;
22191;SDS011;11261;52.456;10.850;2023-12-07T02:16:25;33.55;;;15.68;;
22191;SDS011;11261;52.456;10.850;2023-12-07T02:19:01;30.00;;;14.48;;
22191;SDS011;11261;52.456;10.850;2023-12-07T02:21:43;32.92;;;13.57;;
22191;SDS011;11261;52.456;10.850;2023-12-07T02:24:19;34.20;;;14.10;;
22191;SDS011;11261;52.456;10.850;2023-12-07T02:26:51;30.70;;;15.32;;
22191;SDS011;11261;52.456;10.850;2023-12-07T02:29:18;31.13;;;14.50;;
22191;SDS011;11261;52.456;10.850;2023-12-07T02:31:47;29.63;;;14.30;;
22191;SDS011;11261;52.456;10.850;2023-12-07T02:34:15;27.70;;;13.18;;
22191;SDS011;11261;52.456;10.850;2023-12-07T02:36:46;32.50;;;14.95;;
22191;SDS011;11261;52.456;10.850;2023-12-07T02:39:18;30.70;;;13.88;;
22191;SDS011;11261;52.456;10.850;2023-12-07T02:41:48;33.00;;;15.05;;
22191;SDS011;11261;52.456;10.850;2023-12-07T02:44:19;28.90;;;13.93;;
22191;SDS011;11261;52.456;10.850;2023-12-07T02:46:49;33.67;;;14.48;;
22191;SDS011;11261;52.456;10.850;2023-12-07T02:49:17;28.38;;;14.07;;
22191;SDS011;11261;52.456;10.850;2023-12-07T02:51:46;30.40;;;13.63;;
22191;SDS011;11261;52.456;10.850;2023-12-07T02:54:14;28.70;;;13.63;;
22191;SDS011;11261;52.456;10.850;2023-12-07T02:56:43;31.02;;;14.88;;
22191;SDS011;11261;52.456;10.850;2023-12-07T02:59:13;28.67;;;14.55;;
22191;SDS011;11261;52.456;10.850;2023-12-07T03:01:41;30.67;;;14.00;;
22191;SDS011;11261;52.456;10.850;2023-12-07T03:04:10;32.00;;;16.02;;
22191;SDS011;11261;52.456;10.850;2023-12-07T03:06:39;31.17;;;14.57;;
22191;SDS011;11261;52.456;10.850;2023-12-07T03:09:07;29.52;;;13.80;;
22191;SDS011;11261;52.456;10.850;2023-12-07T03:11:36;33.08;;;13.70;;
22191;SDS011;11261;52.456;10.850;2023-12-07T03:14:04;31.63;;;14.73;;
22191;SDS011;11261;52.456;10.850;2023-12-07T03:16:34;31.63;;;14.30;;
22191;SDS011;11261;52.456;10.850;2023-12-07T03:19:03;33.05;;;14.73;;
22191;SDS011;11261;52.456;10.850;2023-12-07T03:21:32;32.22;;;13.93;;
22191;SDS011;11261;52.456;10.850;2023-12-07T03:24:01;35.47;;;16.23;;
22191;SDS011;11261;52.456;10.850;2023-12-07T03:26:29;31.50;;;14.18;;
22191;SDS011;11261;52.456;10.850;2023-12-07T03:28:58;33.45;;;15.57;;
22191;SDS011;11261;52.456;10.850;2023-12-07T03:31:27;34.47;;;14.40;;
22191;SDS011;11261;52.456;10.850;2023-12-07T03:33:57;29.95;;;13.55;;
22191;SDS011;11261;52.456;10.850;2023-12-07T03:36:28;27.55;;;12.20;;
22191;SDS011;11261;52.456;10.850;2023-12-07T03:38:58;34.40;;;16.60;;
22191;SDS011;11261;52.456;10.850;2023-12-07T03:41:26;32.35;;;14.77;;
22191;SDS011;11261;52.456;10.850;2023-12-07T03:43:55;35.40;;;15.82;;
22191;SDS011;11261;52.456;10.850;2023-12-07T03:46:23;31.95;;;14.38;;
22191;SDS011;11261;52.456;10.850;2023-12-07T03:48:52;34.75;;;15.75;;
22191;SDS011;11261;52.456;10.850;2023-12-07T03:51:22;32.28;;;16.75;;
22191;SDS011;11261;52.456;10.850;2023-12-07T03:53:50;31.45;;;16.23;;
22191;SDS011;11261;52.456;10.850;2023-12-07T03:56:23;37.72;;;15.88;;
22191;SDS011;11261;52.456;10.850;2023-12-07T03:58:52;32.92;;;15.82;;
22191;SDS011;11261;52.456;10.850;2023-12-07T04:01:21;32.63;;;16.13;;
22191;SDS011;11261;52.456;10.850;2023-12-07T04:03:51;33.63;;;16.38;;
22191;SDS011;11261;52.456;10.850;2023-12-07T04:06:23;32.65;;;16.17;;
22191;SDS011;11261;52.456;10.850;2023-12-07T04:08:52;34.55;;;16.13;;
22191;SDS011;11261;52.456;10.850;2023-12-07T04:11:20;32.08;;;15.98;;
22191;SDS011;11261;52.456;10.850;2023-12-07T04:13:49;34.92;;;15.95;;
22191;SDS011;11261;52.456;10.850;2023-12-07T04:16:18;37.78;;;17.45;;
22191;SDS011;11261;52.456;10.850;2023-12-07T04:18:46;37.58;;;17.70;;
22191;SDS011;11261;52.456;10.850;2023-12-07T04:21:15;37.80;;;16.73;;
22191;SDS011;11261;52.456;10.850;2023-12-07T04:23:45;34.47;;;17.67;;
22191;SDS011;11261;52.456;10.850;2023-12-07T04:26:14;37.72;;;17.90;;
22191;SDS011;11261;52.456;10.850;2023-12-07T04:28:43;34.72;;;16.77;;
22191;SDS011;11261;52.456;10.850;2023-12-07T04:31:11;33.03;;;16.15;;
22191;SDS011;11261;52.456;10.850;2023-12-07T04:33:40;31.27;;;15.65;;
22191;SDS011;11261;52.456;10.850;2023-12-07T04:36:08;34.13;;;16.30;;
22191;SDS011;11261;52.456;10.850;2023-12-07T04:38:37;30.77;;;15.30;;
22191;SDS011;11261;52.456;10.850;2023-12-07T04:41:08;33.22;;;16.15;;
22191;SDS011;11261;52.456;10.850;2023-12-07T04:43:36;31.45;;;17.05;;
22191;SDS011;11261;52.456;10.850;2023-12-07T04:46:05;29.80;;;16.15;;
22191;SDS011;11261;52.456;10.850;2023-12-07T04:48:33;31.80;;;16.73;;
22191;SDS011;11261;52.456;10.850;2023-12-07T04:51:02;30.08;;;15.63;;
22191;SDS011;11261;52.456;10.850;2023-12-07T04:53:31;27.73;;;14.82;;
22191;SDS011;11261;52.456;10.850;2023-12-07T04:55:59;31.80;;;15.32;;
22191;SDS011;11261;52.456;10.850;2023-12-07T04:58:30;30.40;;;16.02;;
22191;SDS011;11261;52.456;10.850;2023-12-07T05:00:58;35.03;;;15.68;;
22191;SDS011;11261;52.456;10.850;2023-12-07T05:03:27;25.92;;;14.88;;
22191;SDS011;11261;52.456;10.850;2023-12-07T05:05:56;27.20;;;14.40;;
22191;SDS011;11261;52.456;10.850;2023-12-07T05:08:24;27.88;;;14.45;;
22191;SDS011;11261;52.456;10.850;2023-12-07T05:10:53;32.85;;;16.77;;
22191;SDS011;11261;52.456;10.850;2023-12-07T05:13:21;28.33;;;14.10;;
22191;SDS011;11261;52.456;10.850;2023-12-07T05:15:51;28.55;;;15.18;;
22191;SDS011;11261;52.456;10.850;2023-12-07T05:18:20;30.65;;;15.60;;
22191;SDS011;11261;52.456;10.850;2023-12-07T05:20:48;24.15;;;14.15;;
22191;SDS011;11261;52.456;10.850;2023-12-07T05:23:17;30.40;;;16.00;;
22191;SDS011;11261;52.456;10.850;2023-12-07T05:25:46;23.95;;;12.77;;
22191;SDS011;11261;52.456;10.850;2023-12-07T05:28:14;29.15;;;14.63;;
22191;SDS011;11261;52.456;10.850;2023-12-07T05:30:43;27.73;;;14.73;;
22191;SDS011;11261;52.456;10.850;2023-12-07T05:33:14;30.75;;;15.45;;
22191;SDS011;11261;52.456;10.850;2023-12-07T05:35:43;28.15;;;15.27;;
22191;SDS011;11261;52.456;10.850;2023-12-07T05:38:12;27.33;;;13.75;;
22191;SDS011;11261;52.456;10.850;2023-12-07T05:40:40;25.70;;;13.52;;
22191;SDS011;11261;52.456;10.850;2023-12-07T05:43:09;28.65;;;14.45;;
22191;SDS011;11261;52.456;10.850;2023-12-07T05:45:38;32.92;;;15.27;;
22191;SDS011;11261;52.456;10.850;2023-12-07T05:48:07;28.63;;;16.10;;
22191;SDS011;11261;52.456;10.850;2023-12-07T05:50:37;26.55;;;14.38;;
22191;SDS011;11261;52.456;10.850;2023-12-07T05:53:06;30.90;;;16.73;;
22191;SDS011;11261;52.456;10.850;2023-12-07T05:55:35;26.13;;;14.63;;
22191;SDS011;11261;52.456;10.850;2023-12-07T05:58:04;29.63;;;14.65;;
22191;SDS011;11261;52.456;10.850;2023-12-07T06:00:33;25.05;;;14.13;;
22191;SDS011;11261;52.456;10.850;2023-12-07T06:03:02;26.73;;;14.60;;
22191;SDS011;11261;52.456;10.850;2023-12-07T06:05:31;27.27;;;15.00;;
22191;SDS011;11261;52.456;10.850;2023-12-07T06:08:01;26.65;;;14.75;;
22191;SDS011;11261;52.456;10.850;2023-12-07T06:10:30;28.10;;;14.65;;
22191;SDS011;11261;52.456;10.850;2023-12-07T06:12:59;25.20;;;14.45;;
22191;SDS011;11261;52.456;10.850;2023-12-07T06:15:27;27.90;;;14.57;;
22191;SDS011;11261;52.456;10.850;2023-12-07T06:17:57;24.98;;;14.18;;
22191;SDS011;11261;52.456;10.850;2023-12-07T06:20:26;28.05;;;13.65;;
22191;SDS011;11261;52.456;10.850;2023-12-07T06:22:55;25.00;;;13.60;;
22191;SDS011;11261;52.456;10.850;2023-12-07T06:25:25;26.60;;;13.75;;
22191;SDS011;11261;52.456;10.850;2023-12-07T06:27:54;26.92;;;13.73;;
22191;SDS011;11261;52.456;10.850;2023-12-07T06:30:23;26.10;;;14.80;;
22191;SDS011;11261;52.456;10.850;2023-12-07T06:32:52;27.23;;;15.60;;
22191;SDS011;11261;52.456;10.850;2023-12-07T06:35:21;25.67;;;14.20;;
22191;SDS011;11261;52.456;10.850;2023-12-07T06:37:49;27.08;;;14.05;;
22191;SDS011;11261;52.456;10.850;2023-12-07T06:40:18;22.95;;;13.43;;
22191;SDS011;11261;52.456;10.850;2023-12-07T06:42:48;30.92;;;16.95;;
22191;SDS011;11261;52.456;10.850;2023-12-07T06:45:17;27.33;;;13.82;;
22191;SDS011;11261;52.456;10.850;2023-12-07T06:47:45;30.60;;;15.45;;
22191;SDS011;11261;52.456;10.850;2023-12-07T06:50:14;23.10;;;12.65;;
22191;SDS011;11261;52.456;10.850;2023-12-07T06:52:43;26.00;;;14.65;;
22191;SDS011;11261;52.456;10.850;2023-12-07T06:55:11;31.05;;;14.20;;
22191;SDS011;11261;52.456;10.850;2023-12-07T06:57:41;28.60;;;14.85;;
22191;SDS011;11261;52.456;10.850;2023-12-07T07:00:11;31.52;;;14.25;;
22191;SDS011;11261;52.456;10.850;2023-12-07T07:02:40;28.67;;;13.77;;
22191;SDS011;11261;52.456;10.850;2023-12-07T07:05:08;28.13;;;13.60;;
22191;SDS011;11261;52.456;10.850;2023-12-07T07:07:38;27.15;;;13.95;;
22191;SDS011;11261;52.456;10.850;2023-12-07T07:10:07;30.13;;;13.80;;
22191;SDS011;11261;52.456;10.850;2023-12-07T07:12:39;27.35;;;13.10;;
22191;SDS011;11261;52.456;10.850;2023-12-07T07:15:08;26.13;;;13.13;;
22191;SDS011;11261;52.456;10.850;2023-12-07T07:17:38;27.60;;;14.43;;
22191;SDS011;11261;52.456;10.850;2023-12-07T07:20:07;29.75;;;14.07;;
22191;SDS011;11261;52.456;10.850;2023-12-07T07:22:35;30.08;;;15.23;;
22191;SDS011;11261;52.456;10.850;2023-12-07T07:25:04;25.50;;;12.07;;
22191;SDS011;11261;52.456;10.850;2023-12-07T07:27:33;25.83;;;12.80;;
22191;SDS011;11261;52.456;10.850;2023-12-07T07:30:02;25.52;;;13.27;;
22191;SDS011;11261;52.456;10.850;2023-12-07T07:32:31;26.30;;;13.68;;
22191;SDS011;11261;52.456;10.850;2023-12-07T07:35:01;24.33;;;12.65;;
22191;SDS011;11261;52.456;10.850;2023-12-07T07:37:29;26.42;;;13.50;;
22191;SDS011;11261;52.456;10.850;2023-12-07T07:39:58;29.48;;;13.77;;
22191;SDS011;11261;52.456;10.850;2023-12-07T07:42:27;25.38;;;13.15;;
22191;SDS011;11261;52.456;10.850;2023-12-07T07:44:56;25.65;;;12.93;;
22191;SDS011;11261;52.456;10.850;2023-12-07T07:47:24;23.60;;;12.57;;
22191;SDS011;11261;52.456;10.850;2023-12-07T07:49:53;24.60;;;13.10;;
22191;SDS011;11261;52.456;10.850;2023-12-07T07:52:23;22.50;;;12.05;;
22191;SDS011;11261;52.456;10.850;2023-12-07T07:54:52;23.95;;;12.90;;
22191;SDS011;11261;52.456;10.850;2023-12-07T07:57:20;23.25;;;13.30;;
22191;SDS011;11261;52.456;10.850;2023-12-07T07:59:49;24.95;;;12.95;;
22191;SDS011;11261;52.456;10.850;2023-12-07T08:02:18;27.63;;;13.85;;
22191;SDS011;11261;52.456;10.850;2023-12-07T08:04:48;22.52;;;12.45;;
22191;SDS011;11261;52.456;10.850;2023-12-07T08:07:18;25.48;;;13.40;;
22191;SDS011;11261;52.456;10.850;2023-12-07T08:09:48;22.85;;;13.10;;
22191;SDS011;11261;52.456;10.850;2023-12-07T08:12:16;23.33;;;13.43;;
22191;SDS011;11261;52.456;10.850;2023-12-07T08:14:45;25.77;;;12.82;;
22191;SDS011;11261;52.456;10.850;2023-12-07T08:17:15;20.25;;;11.38;;
22191;SDS011;11261;52.456;10.850;2023-12-07T08:19:46;24.92;;;11.77;;
22191;SDS011;11261;52.456;10.850;2023-12-07T08:22:16;25.95;;;12.82;;
22191;SDS011;11261;52.456;10.850;2023-12-07T08:24:44;24.67;;;13.30;;
22191;SDS011;11261;52.456;10.850;2023-12-07T08:27:24;24.63;;;13.48;;
22191;SDS011;11261;52.456;10.850;2023-12-07T08:29:53;23.27;;;12.70;;
22191;SDS011;11261;52.456;10.850;2023-12-07T08:32:21;27.33;;;12.77;;
22191;SDS011;11261;52.456;10.850;2023-12-07T08:34:52;22.15;;;12.73;;
22191;SDS011;11261;52.456;10.850;2023-12-07T08:37:21;22.60;;;12.77;;
22191;SDS011;11261;52.456;10.850;2023-12-07T08:39:49;24.02;;;12.73;;
22191;SDS011;11261;52.456;10.850;2023-12-07T08:42:18;20.35;;;11.15;;
22191;SDS011;11261;52.456;10.850;2023-12-07T08:44:48;24.27;;;12.18;;
22191;SDS011;11261;52.456;10.850;2023-12-07T08:47:16;26.50;;;13.43;;
22191;SDS011;11261;52.456;10.850;2023-12-07T08:49:44;21.85;;;12.38;;
22191;SDS011;11261;52.456;10.850;2023-12-07T08:52:13;19.95;;;11.57;;
22191;SDS011;11261;52.456;10.850;2023-12-07T08:55:00;22.33;;;11.73;;
22191;SDS011;11261;52.456;10.850;2023-12-07T08:57:29;21.38;;;13.02;;
22191;SDS011;11261;52.456;10.850;2023-12-07T08:59:59;27.00;;;13.63;;
22191;SDS011;11261;52.456;10.850;2023-12-07T09:02:28;23.15;;;13.55;;
22191;SDS011;11261;52.456;10.850;2023-12-07T09:05:11;23.70;;;13.30;;
22191;SDS011;11261;52.456;10.850;2023-12-07T09:07:40;21.92;;;11.50;;
22191;SDS011;11261;52.456;10.850;2023-12-07T09:10:09;20.85;;;10.70;;
22191;SDS011;11261;52.456;10.850;2023-12-07T09:12:38;20.27;;;11.85;;
22191;SDS011;11261;52.456;10.850;2023-12-07T09:15:09;23.75;;;13.48;;
22191;SDS011;11261;52.456;10.850;2023-12-07T09:17:39;24.05;;;12.30;;
22191;SDS011;11261;52.456;10.850;2023-12-07T09:20:09;23.48;;;13.07;;
22191;SDS011;11261;52.456;10.850;2023-12-07T09:22:41;23.65;;;12.93;;
22191;SDS011;11261;52.456;10.850;2023-12-07T09:25:11;22.65;;;12.85;;
22191;SDS011;11261;52.456;10.850;2023-12-07T09:27:39;24.63;;;13.52;;
22191;SDS011;11261;52.456;10.850;2023-12-07T09:30:10;22.30;;;12.50;;
22191;SDS011;11261;52.456;10.850;2023-12-07T09:32:39;23.80;;;12.25;;
22191;SDS011;11261;52.456;10.850;2023-12-07T09:35:11;27.88;;;13.70;;
22191;SDS011;11261;52.456;10.850;2023-12-07T09:37:42;23.00;;;12.18;;
22191;SDS011;11261;52.456;10.850;2023-12-07T09:40:14;26.45;;;13.82;;
22191;SDS011;11261;52.456;10.850;2023-12-07T09:42:45;21.90;;;12.52;;
22191;SDS011;11261;52.456;10.850;2023-12-07T09:45:16;23.27;;;12.45;;
22191;SDS011;11261;52.456;10.850;2023-12-07T09:47:46;27.55;;;13.88;;
22191;SDS011;11261;52.456;10.850;2023-12-07T09:50:17;23.13;;;12.93;;
22191;SDS011;11261;52.456;10.850;2023-12-07T09:52:48;23.85;;;12.48;;
22191;SDS011;11261;52.456;10.850;2023-12-07T09:55:32;22.02;;;12.05;;
22191;SDS011;11261;52.456;10.850;2023-12-07T09:58:03;23.42;;;12.55;;
22191;SDS011;11261;52.456;10.850;2023-12-07T10:00:35;22.35;;;11.63;;
22191;SDS011;11261;52.456;10.850;2023-12-07T10:03:05;19.30;;;11.40;;
22191;SDS011;11261;52.456;10.850;2023-12-07T10:08:26;22.42;;;12.82;;
22191;SDS011;11261;52.456;10.850;2023-12-07T10:11:01;17.40;;;10.93;;
22191;SDS011;11261;52.456;10.850;2023-12-07T10:13:32;23.67;;;12.63;;
22191;SDS011;11261;52.456;10.850;2023-12-07T10:16:06;20.90;;;12.38;;
22191;SDS011;11261;52.456;10.850;2023-12-07T10:18:36;20.45;;;11.38;;
22191;SDS011;11261;52.456;10.850;2023-12-07T10:21:10;23.60;;;14.18;;
22191;SDS011;11261;52.456;10.850;2023-12-07T10:23:40;20.73;;;12.07;;
22191;SDS011;11261;52.456;10.850;2023-12-07T10:26:13;22.27;;;13.32;;
22191;SDS011;11261;52.456;10.850;2023-12-07T10:28:46;17.95;;;10.38;;
22191;SDS011;11261;52.456;10.850;2023-12-07T10:31:22;22.20;;;12.45;;
22191;SDS011;11261;52.456;10.850;2023-12-07T10:33:51;21.58;;;11.77;;
22191;SDS011;11261;52.456;10.850;2023-12-07T10:36:20;22.23;;;12.40;;
22191;SDS011;11261;52.456;10.850;2023-12-07T10:38:49;24.27;;;13.18;;
22191;SDS011;11261;52.456;10.850;2023-12-07T10:41:19;26.92;;;13.98;;
22191;SDS011;11261;52.456;10.850;2023-12-07T10:43:51;21.15;;;12.93;;
22191;SDS011;11261;52.456;10.850;2023-12-07T10:46:23;23.15;;;12.05;;
22191;SDS011;11261;52.456;10.850;2023-12-07T10:48:54;21.90;;;12.13;;
22191;SDS011;11261;52.456;10.850;2023-12-07T10:51:29;20.08;;;10.20;;
22191;SDS011;11261;52.456;10.850;2023-12-07T10:54:02;23.83;;;10.63;;
22191;SDS011;11261;52.456;10.850;2023-12-07T10:56:35;23.35;;;12.30;;
22191;SDS011;11261;52.456;10.850;2023-12-07T10:59:08;20.27;;;11.27;;
22191;SDS011;11261;52.456;10.850;2023-12-07T11:01:54;22.17;;;10.95;;
22191;SDS011;11261;52.456;10.850;2023-12-07T11:04:25;22.80;;;11.88;;
22191;SDS011;11261;52.456;10.850;2023-12-07T11:06:55;21.48;;;12.63;;
22191;SDS011;11261;52.456;10.850;2023-12-07T11:09:28;24.15;;;10.98;;
22191;SDS011;11261;52.456;10.850;2023-12-07T11:12:04;20.55;;;12.18;;
22191;SDS011;11261;52.456;10.850;2023-12-07T11:14:37;20.17;;;11.07;;
22191;SDS011;11261;52.456;10.850;2023-12-07T11:17:08;21.23;;;11.88;;
22191;SDS011;11261;52.456;10.850;2023-12-07T11:19:48;20.67;;;11.00;;
22191;SDS011;11261;52.456;10.850;2023-12-07T11:22:17;19.42;;;11.38;;
22191;SDS011;11261;52.456;10.850;2023-12-07T11:24:56;19.52;;;11.40;;
22191;SDS011;11261;52.456;10.850;2023-12-07T11:27:29;21.00;;;11.70;;
22191;SDS011;11261;52.456;10.850;2023-12-07T11:29:58;19.85;;;11.25;;
22191;SDS011;11261;52.456;10.850;2023-12-07T11:32:31;21.52;;;11.75;;
22191;SDS011;11261;52.456;10.850;2023-12-07T11:35:02;21.35;;;11.57;;
22191;SDS011;11261;52.456;10.850;2023-12-07T11:40:36;15.25;;;8.15;;
22191;SDS011;11261;52.456;10.850;2023-12-07T11:43:07;23.25;;;11.38;;
22191;SDS011;11261;52.456;10.850;2023-12-07T11:45:46;19.88;;;10.60;;
22191;SDS011;11261;52.456;10.850;2023-12-07T11:48:17;20.48;;;11.95;;
22191;SDS011;11261;52.456;10.850;2023-12-07T11:50:59;19.00;;;11.23;;
22191;SDS011;11261;52.456;10.850;2023-12-07T11:53:29;17.60;;;9.90;;
22191;SDS011;11261;52.456;10.850;2023-12-07T11:55:59;19.17;;;11.77;;
22191;SDS011;11261;52.456;10.850;2023-12-07T11:58:28;20.50;;;11.57;;
22191;SDS011;11261;52.456;10.850;2023-12-07T12:01:02;16.10;;;10.25;;
22191;SDS011;11261;52.456;10.850;2023-12-07T12:03:33;20.58;;;10.68;;
22191;SDS011;11261;52.456;10.850;2023-12-07T12:06:03;16.58;;;10.25;;
22191;SDS011;11261;52.456;10.850;2023-12-07T12:08:35;18.67;;;10.50;;
22191;SDS011;11261;52.456;10.850;2023-12-07T12:11:03;16.88;;;9.50;;
22191;SDS011;11261;52.456;10.850;2023-12-07T12:13:33;26.45;;;10.90;;
22191;SDS011;11261;52.456;10.850;2023-12-07T12:16:03;15.20;;;8.82;;
22191;SDS011;11261;52.456;10.850;2023-12-07T12:18:34;24.23;;;12.07;;
22191;SDS011;11261;52.456;10.850;2023-12-07T12:21:06;20.95;;;11.55;;
22191;SDS011;11261;52.456;10.850;2023-12-07T12:23:35;17.75;;;10.05;;
22191;SDS011;11261;52.456;10.850;2023-12-07T12:26:06;20.55;;;10.45;;
22191;SDS011;11261;52.456;10.850;2023-12-07T12:28:38;17.15;;;10.32;;
22191;SDS011;11261;52.456;10.850;2023-12-07T12:31:10;22.20;;;10.85;;
22191;SDS011;11261;52.456;10.850;2023-12-07T12:33:41;19.50;;;10.95;;
22191;SDS011;11261;52.456;10.850;2023-12-07T12:36:10;17.77;;;10.70;;
22191;SDS011;11261;52.456;10.850;2023-12-07T12:38:38;18.88;;;10.73;;
22191;SDS011;11261;52.456;10.850;2023-12-07T12:41:10;18.63;;;9.82;;
22191;SDS011;11261;52.456;10.850;2023-12-07T12:43:40;17.83;;;9.73;;
22191;SDS011;11261;52.456;10.850;2023-12-07T12:46:09;17.20;;;9.95;;
22191;SDS011;11261;52.456;10.850;2023-12-07T12:48:53;16.08;;;10.10;;
22191;SDS011;11261;52.456;10.850;2023-12-07T12:51:23;21.35;;;11.30;;
22191;SDS011;11261;52.456;10.850;2023-12-07T12:53:54;18.20;;;9.75;;
22191;SDS011;11261;52.456;10.850;2023-12-07T12:56:25;15.50;;;9.00;;
22191;SDS011;11261;52.456;10.850;2023-12-07T12:58:54;16.02;;;9.63;;
22191;SDS011;11261;52.456;10.850;2023-12-07T13:01:30;16.88;;;9.77;;
22191;SDS011;11261;52.456;10.850;2023-12-07T13:04:01;17.48;;;9.73;;
22191;SDS011;11261;52.456;10.850;2023-12-07T13:06:30;14.55;;;8.55;;
22191;SDS011;11261;52.456;10.850;2023-12-07T13:08:59;17.48;;;8.77;;
22191;SDS011;11261;52.456;10.850;2023-12-07T13:11:27;18.00;;;8.98;;
22191;SDS011;11261;52.456;10.850;2023-12-07T13:13:55;19.45;;;10.68;;
22191;SDS011;11261;52.456;10.850;2023-12-07T13:16:24;16.17;;;9.90;;
22191;SDS011;11261;52.456;10.850;2023-12-07T13:18:53;19.00;;;10.05;;
22191;SDS011;11261;52.456;10.850;2023-12-07T13:21:24;15.63;;;10.35;;
22191;SDS011;11261;52.456;10.850;2023-12-07T13:23:53;13.43;;;7.68;;
22191;SDS011;11261;52.456;10.850;2023-12-07T13:26:22;17.08;;;10.40;;
22191;SDS011;11261;52.456;10.850;2023-12-07T13:28:50;17.92;;;9.75;;
22191;SDS011;11261;52.456;10.850;2023-12-07T13:31:19;14.30;;;8.23;;
22191;SDS011;11261;52.456;10.850;2023-12-07T13:33:48;17.23;;;9.93;;
22191;SDS011;11261;52.456;10.850;2023-12-07T13:36:24;18.92;;;10.00;;
22191;SDS011;11261;52.456;10.850;2023-12-07T13:38:55;17.17;;;9.52;;
22191;SDS011;11261;52.456;10.850;2023-12-07T13:41:24;17.40;;;9.63;;
22191;SDS011;11261;52.456;10.850;2023-12-07T13:43:52;15.32;;;9.60;;
22191;SDS011;11261;52.456;10.850;2023-12-07T13:46:21;16.63;;;9.43;;
22191;SDS011;11261;52.456;10.850;2023-12-07T13:48:50;18.52;;;9.07;;
22191;SDS011;11261;52.456;10.850;2023-12-07T13:51:19;17.52;;;9.68;;
22191;SDS011;11261;52.456;10.850;2023-12-07T13:53:50;15.85;;;9.57;;
22191;SDS011;11261;52.456;10.850;2023-12-07T13:56:26;17.23;;;9.50;;
22191;SDS011;11261;52.456;10.850;2023-12-07T13:58:54;17.67;;;10.20;;
22191;SDS011;11261;52.456;10.850;2023-12-07T14:01:23;15.30;;;8.70;;
22191;SDS011;11261;52.456;10.850;2023-12-07T14:03:52;13.85;;;8.68;;
22191;SDS011;11261;52.456;10.850;2023-12-07T14:06:21;14.88;;;9.43;;
22191;SDS011;11261;52.456;10.850;2023-12-07T14:08:56;18.83;;;10.00;;
22191;SDS011;11261;52.456;10.850;2023-12-07T14:11:24;17.08;;;8.30;;
22191;SDS011;11261;52.456;10.850;2023-12-07T14:13:53;15.55;;;8.68;;
22191;SDS011;11261;52.456;10.850;2023-12-07T14:16:22;12.90;;;8.30;;
22191;SDS011;11261;52.456;10.850;2023-12-07T14:19:10;17.77;;;8.27;;
22191;SDS011;11261;52.456;10.850;2023-12-07T14:21:45;13.13;;;8.63;;
22191;SDS011;11261;52.456;10.850;2023-12-07T14:24:23;17.65;;;9.15;;
22191;SDS011;11261;52.456;10.850;2023-12-07T14:26:52;14.95;;;8.55;;
22191;SDS011;11261;52.456;10.850;2023-12-07T14:29:22;15.90;;;9.73;;
22191;SDS011;11261;52.456;10.850;2023-12-07T14:31:53;16.35;;;9.93;;
22191;SDS011;11261;52.456;10.850;2023-12-07T14:34:23;18.52;;;9.45;;
22191;SDS011;11261;52.456;10.850;2023-12-07T14:37:01;20.95;;;9.75;;